createdAt,value
2018-05-29T00:00:40.911Z,18.35
2018-05-29T00:03:08.351Z,18.29
2018-05-29T00:05:35.936Z,18.28
2018-05-29T00:08:03.367Z,18.29
2018-05-29T00:10:30.785Z,18.22
2018-05-29T00:12:58.225Z,18.23
2018-05-29T00:15:25.656Z,18.28
2018-05-29T00:17:53.225Z,18.25
2018-05-29T00:20:20.654Z,18.23
2018-05-29T00:22:49.913Z,18.27
2018-05-29T00:25:17.551Z,18.41
2018-05-29T00:27:44.985Z,18.44
2018-05-29T00:30:12.464Z,18.50
2018-05-29T00:32:40.405Z,18.59
2018-05-29T00:35:07.889Z,18.63
2018-05-29T00:37:35.324Z,18.57
2018-05-29T00:40:02.799Z,18.59
2018-05-29T00:42:30.391Z,18.68
2018-05-29T00:44:57.850Z,18.71
2018-05-29T00:47:28.271Z,18.66
2018-05-29T00:49:55.826Z,18.69
2018-05-29T00:52:23.223Z,18.73
2018-05-29T00:55:02.644Z,18.75
2018-05-29T00:57:30.079Z,18.66
2018-05-29T00:59:57.556Z,18.61
2018-05-29T01:02:25.008Z,18.57
2018-05-29T01:04:52.439Z,18.64
2018-05-29T01:07:19.863Z,18.67
2018-05-29T01:09:47.441Z,18.66
2018-05-29T01:12:19.291Z,18.64
2018-05-29T01:14:46.734Z,18.63
2018-05-29T01:17:14.770Z,18.55
2018-05-29T01:19:42.217Z,18.58
2018-05-29T01:22:09.958Z,18.63
2018-05-29T01:24:37.420Z,18.58
2018-05-29T01:27:04.883Z,18.52
2018-05-29T01:29:32.284Z,18.48
2018-05-29T01:31:59.724Z,18.53
2018-05-29T01:34:28.465Z,18.49
2018-05-29T01:36:57.108Z,18.40
2018-05-29T01:39:24.593Z,18.38
2018-05-29T01:41:52.037Z,18.31
2018-05-29T01:44:19.560Z,18.31
2018-05-29T01:46:47.005Z,18.33
2018-05-29T01:49:14.459Z,18.33
2018-05-29T01:51:41.926Z,18.35
2018-05-29T01:54:09.384Z,18.36
2018-05-29T01:56:36.836Z,18.37
2018-05-29T01:59:04.316Z,18.39
2018-05-29T02:01:32.472Z,18.40
2018-05-29T02:03:59.880Z,18.43
2018-05-29T02:06:27.335Z,18.47
2018-05-29T02:08:54.768Z,18.41
2018-05-29T02:11:22.247Z,18.37
2018-05-29T02:13:49.688Z,18.37
2018-05-29T02:16:18.982Z,18.39
2018-05-29T02:18:46.426Z,18.30
2018-05-29T02:21:13.936Z,18.29
2018-05-29T02:23:41.528Z,18.28
2018-05-29T02:26:08.960Z,18.25
2018-05-29T02:28:36.393Z,18.26
2018-05-29T02:31:03.829Z,18.29
2018-05-29T02:33:32.454Z,18.30
2018-05-29T02:35:59.880Z,18.32
2018-05-29T02:38:28.800Z,18.32
2018-05-29T02:40:56.299Z,18.30
2018-05-29T02:43:23.750Z,18.30
2018-05-29T02:45:51.310Z,18.23
2018-05-29T02:48:18.803Z,18.18
2018-05-29T02:50:46.225Z,18.17
2018-05-29T02:53:17.329Z,18.11
2018-05-29T02:55:44.739Z,18.10
2018-05-29T02:58:12.186Z,18.12
2018-05-29T03:00:39.730Z,18.16
2018-05-29T03:03:07.212Z,18.18
2018-05-29T03:05:34.655Z,18.16
2018-05-29T03:08:02.917Z,18.10
2018-05-29T03:10:30.351Z,17.91
2018-05-29T03:12:57.813Z,17.80
2018-05-29T03:15:25.310Z,17.86
2018-05-29T03:17:52.736Z,17.85
2018-05-29T03:20:21.861Z,17.89
2018-05-29T03:22:49.274Z,17.93
2018-05-29T03:25:16.713Z,17.96
2018-05-29T03:27:44.144Z,17.98
2018-05-29T03:30:11.660Z,18.01
2018-05-29T03:32:39.135Z,18.02
2018-05-29T03:35:06.535Z,18.02
2018-05-29T03:37:33.980Z,17.98
2018-05-29T03:40:02.894Z,17.93
2018-05-29T03:42:31.304Z,17.85
2018-05-29T03:44:58.776Z,17.88
2018-05-29T03:47:27.100Z,17.90
2018-05-29T03:49:54.560Z,17.91
2018-05-29T03:52:21.992Z,17.88
2018-05-29T03:54:50.020Z,17.92
2018-05-29T03:57:17.514Z,17.99
2018-05-29T03:59:45.674Z,18.10
2018-05-29T04:02:13.113Z,18.13
2018-05-29T04:04:40.567Z,18.13
2018-05-29T04:07:07.991Z,18.15
2018-05-29T04:09:35.441Z,18.16
2018-05-29T04:12:02.879Z,18.20
2018-05-29T04:14:30.372Z,18.20
2018-05-29T04:16:57.874Z,18.26
2018-05-29T04:19:25.353Z,18.32
2018-05-29T04:21:52.926Z,18.31
2018-05-29T04:24:20.404Z,18.30
2018-05-29T04:26:47.908Z,18.31
2018-05-29T04:29:15.437Z,18.26
2018-05-29T04:31:43.442Z,18.25
2018-05-29T04:34:10.906Z,18.23
2018-05-29T04:36:38.887Z,18.17
2018-05-29T04:39:06.365Z,18.09
2018-05-29T04:41:33.797Z,18.10
2018-05-29T04:44:01.259Z,18.12
2018-05-29T04:46:28.651Z,18.11
2018-05-29T04:48:57.097Z,18.17
2018-05-29T04:51:24.538Z,18.25
2018-05-29T04:53:52.600Z,18.27
2018-05-29T04:56:20.124Z,18.24
2018-05-29T04:58:47.562Z,18.21
2018-05-29T05:01:14.994Z,18.21
2018-05-29T05:03:43.099Z,18.22
2018-05-29T05:06:10.524Z,18.21
2018-05-29T05:08:39.351Z,18.20
2018-05-29T05:11:06.816Z,18.18
2018-05-29T05:13:34.218Z,18.10
2018-05-29T05:16:01.697Z,18.10
2018-05-29T05:18:29.100Z,18.19
2018-05-29T05:20:56.894Z,18.20
2018-05-29T05:23:24.316Z,18.24
2018-05-29T05:25:51.784Z,18.31
2018-05-29T05:28:19.245Z,18.39
2018-05-29T05:30:46.739Z,18.47
2018-05-29T05:33:14.166Z,18.51
2018-05-29T05:35:41.562Z,18.60
2018-05-29T05:38:09.003Z,18.52
2018-05-29T05:40:36.430Z,18.48
2018-05-29T05:43:03.837Z,18.59
2018-05-29T05:45:31.258Z,18.62
2018-05-29T05:47:58.801Z,18.69
2018-05-29T05:50:26.456Z,18.68
2018-05-29T05:52:53.884Z,18.59
2018-05-29T05:55:21.350Z,18.49
2018-05-29T05:57:48.812Z,18.44
2018-05-29T06:00:16.263Z,18.38
2018-05-29T06:02:43.708Z,18.32
2018-05-29T06:05:11.166Z,18.36
2018-05-29T06:07:38.600Z,18.36
2018-05-29T06:10:06.137Z,18.41
2018-05-29T06:12:33.570Z,18.44
2018-05-29T06:15:01.040Z,18.49
2018-05-29T06:17:28.434Z,18.49
2018-05-29T06:19:56.007Z,18.53
2018-05-29T06:22:23.438Z,18.67
2018-05-29T06:24:50.898Z,18.71
2018-05-29T06:27:18.344Z,18.78
2018-05-29T06:29:45.783Z,18.77
2018-05-29T06:32:13.227Z,18.80
2018-05-29T06:34:40.664Z,18.87
2018-05-29T06:37:08.159Z,18.99
2018-05-29T06:39:35.628Z,19.04
2018-05-29T06:42:06.811Z,19.07
2018-05-29T06:44:35.465Z,19.20
2018-05-29T06:47:02.863Z,19.34
2018-05-29T06:49:32.447Z,19.41
2018-05-29T06:51:59.929Z,19.52
2018-05-29T06:54:27.710Z,19.78
2018-05-29T06:56:55.197Z,19.95
2018-05-29T06:59:22.636Z,19.93
2018-05-29T07:01:51.290Z,19.91
2018-05-29T07:04:18.718Z,19.90
2018-05-29T07:06:46.227Z,19.81
2018-05-29T07:09:28.175Z,19.63
2018-05-29T07:11:55.657Z,19.45
2018-05-29T07:14:24.944Z,19.37
2018-05-29T07:16:52.583Z,19.21
2018-05-29T07:19:20.043Z,19.17
2018-05-29T07:21:47.499Z,19.25
2018-05-29T07:24:14.924Z,19.53
2018-05-29T07:26:43.170Z,19.67
2018-05-29T07:29:11.847Z,19.92
2018-05-29T07:31:39.324Z,20.18
2018-05-29T07:34:06.833Z,20.46
2018-05-29T07:36:34.296Z,20.83
2018-05-29T07:39:02.368Z,20.92
2018-05-29T07:41:29.806Z,21.01
2018-05-29T07:43:57.280Z,21.25
2018-05-29T07:46:24.716Z,21.14
2018-05-29T07:48:52.185Z,21.01
2018-05-29T07:51:19.626Z,21.01
2018-05-29T07:53:47.950Z,21.01
2018-05-29T07:56:15.357Z,21.23
2018-05-29T07:58:42.807Z,21.43
2018-05-29T08:01:10.298Z,21.96
2018-05-29T08:03:38.240Z,22.09
2018-05-29T08:06:05.723Z,22.01
2018-05-29T08:08:33.919Z,21.75
2018-05-29T08:11:01.340Z,21.43
2018-05-29T08:13:28.743Z,21.63
2018-05-29T08:15:56.520Z,21.71
2018-05-29T08:18:23.963Z,22.55
2018-05-29T08:20:51.410Z,23.37
2018-05-29T08:23:18.964Z,23.55
2018-05-29T08:25:46.598Z,23.50
2018-05-29T08:28:14.097Z,23.38
2018-05-29T08:30:41.605Z,23.60
2018-05-29T08:33:09.049Z,24.07
2018-05-29T08:35:36.505Z,24.12
2018-05-29T08:38:04.011Z,23.99
2018-05-29T08:40:31.592Z,23.55
2018-05-29T08:42:59.046Z,23.58
2018-05-29T08:45:26.522Z,23.66
2018-05-29T08:47:54.341Z,23.65
2018-05-29T08:50:21.812Z,23.61
2018-05-29T08:52:49.280Z,23.93
2018-05-29T08:55:16.720Z,23.75
2018-05-29T08:57:44.182Z,23.20
2018-05-29T09:00:11.582Z,23.39
2018-05-29T09:02:39.246Z,23.93
2018-05-29T09:05:06.640Z,23.87
2018-05-29T09:07:34.082Z,23.96
2018-05-29T09:10:01.606Z,23.86
2018-05-29T09:12:30.059Z,24.12
2018-05-29T09:14:58.241Z,23.73
2018-05-29T09:17:25.652Z,23.30
2018-05-29T09:19:53.177Z,23.23
2018-05-29T09:22:20.559Z,23.09
2018-05-29T09:24:48.028Z,23.29
2018-05-29T09:27:15.516Z,23.80
2018-05-29T09:29:43.546Z,23.98
2018-05-29T09:32:10.989Z,24.13
2018-05-29T09:34:38.489Z,24.44
2018-05-29T09:37:05.942Z,24.10
2018-05-29T09:39:33.522Z,24.17
2018-05-29T09:42:00.971Z,24.59
2018-05-29T09:44:28.453Z,24.59
2018-05-29T09:46:55.873Z,24.80
2018-05-29T09:49:23.442Z,25.02
2018-05-29T09:51:51.561Z,25.08
2018-05-29T09:54:19.078Z,25.28
2018-05-29T09:56:46.557Z,25.32
2018-05-29T09:59:13.986Z,25.73
2018-05-29T10:01:41.497Z,25.51
2018-05-29T10:04:09.001Z,24.98
2018-05-29T10:06:39.112Z,25.28
2018-05-29T10:09:06.616Z,25.44
2018-05-29T10:11:35.144Z,25.50
2018-05-29T10:14:02.623Z,25.46
2018-05-29T10:16:30.093Z,25.35
2018-05-29T10:18:58.376Z,25.34
2018-05-29T10:21:25.891Z,25.33
2018-05-29T10:23:53.542Z,25.10
2018-05-29T10:26:21.052Z,25.27
2018-05-29T10:28:48.499Z,25.15
2018-05-29T10:31:17.107Z,25.10
2018-05-29T10:33:44.785Z,24.82
2018-05-29T10:36:13.611Z,24.82
2018-05-29T10:38:41.075Z,24.93
2018-05-29T10:41:10.819Z,25.41
2018-05-29T10:43:38.261Z,25.36
2018-05-29T10:46:05.731Z,25.43
2018-05-29T10:48:34.198Z,25.58
2018-05-29T10:51:01.662Z,25.60
2018-05-29T10:53:29.594Z,25.47
2018-05-29T10:55:57.023Z,25.67
2018-05-29T10:58:24.463Z,25.73
2018-05-29T11:00:51.882Z,25.75
2018-05-29T11:03:19.327Z,25.66
2018-05-29T11:05:46.736Z,25.77
2018-05-29T11:08:14.786Z,25.58
2018-05-29T11:10:42.400Z,25.72
2018-05-29T11:13:09.840Z,25.98
2018-05-29T11:15:37.251Z,26.00
2018-05-29T11:18:05.520Z,26.39
2018-05-29T11:20:33.008Z,25.99
2018-05-29T11:23:00.528Z,25.66
2018-05-29T11:25:27.962Z,25.63
2018-05-29T11:27:55.440Z,25.87
2018-05-29T11:30:22.976Z,25.98
2018-05-29T11:32:50.509Z,26.34
2018-05-29T11:35:17.937Z,26.39
2018-05-29T11:37:45.997Z,26.58
2018-05-29T11:40:13.413Z,26.64
2018-05-29T11:42:40.895Z,26.56
2018-05-29T11:45:08.376Z,26.50
2018-05-29T11:47:35.860Z,26.33
2018-05-29T11:50:03.335Z,26.52
2018-05-29T11:52:30.801Z,26.56
2018-05-29T11:54:58.327Z,26.47
2018-05-29T11:57:25.715Z,26.52
2018-05-29T11:59:53.152Z,26.75
2018-05-29T12:02:20.693Z,26.78
2018-05-29T12:04:48.143Z,27.03
2018-05-29T12:07:15.698Z,27.04
2018-05-29T12:09:43.228Z,26.83
2018-05-29T12:12:22.464Z,26.87
2018-05-29T12:14:49.944Z,26.94
2018-05-29T12:17:17.342Z,27.05
2018-05-29T12:19:44.755Z,27.01
2018-05-29T12:22:12.178Z,26.89
2018-05-29T12:24:39.638Z,26.83
2018-05-29T12:27:07.126Z,26.81
2018-05-29T12:29:35.263Z,26.52
2018-05-29T12:32:02.737Z,26.89
2018-05-29T12:34:31.456Z,26.82
2018-05-29T12:36:59.082Z,26.75
2018-05-29T12:39:26.488Z,26.83
2018-05-29T12:41:55.300Z,26.86
2018-05-29T12:44:22.761Z,26.91
2018-05-29T12:46:50.172Z,26.90
2018-05-29T12:49:17.654Z,27.03
2018-05-29T12:51:45.123Z,26.92
2018-05-29T12:54:12.596Z,27.05
2018-05-29T12:56:40.066Z,27.19
2018-05-29T12:59:07.580Z,27.39
2018-05-29T13:01:35.088Z,27.45
2018-05-29T13:04:02.536Z,27.41
2018-05-29T13:06:31.056Z,27.55
2018-05-29T13:08:58.463Z,27.31
2018-05-29T13:11:25.945Z,27.33
2018-05-29T13:13:55.663Z,27.44
2018-05-29T13:16:23.125Z,27.80
2018-05-29T13:18:50.583Z,27.75
2018-05-29T13:21:18.056Z,27.32
2018-05-29T13:23:45.575Z,26.86
2018-05-29T13:26:13.018Z,26.86
2018-05-29T13:28:40.699Z,26.96
2018-05-29T13:31:08.193Z,27.47
2018-05-29T13:33:35.734Z,27.80
2018-05-29T13:36:03.212Z,28.02
2018-05-29T13:38:30.676Z,27.90
2018-05-29T13:40:58.114Z,27.32
2018-05-29T13:43:29.314Z,27.19
2018-05-29T13:45:56.794Z,27.57
2018-05-29T13:48:24.292Z,27.89
2018-05-29T13:50:51.786Z,27.63
2018-05-29T13:53:19.239Z,27.76
2018-05-29T13:55:46.706Z,27.70
2018-05-29T13:58:14.225Z,27.90
2018-05-29T14:00:41.628Z,27.84
2018-05-29T14:03:09.937Z,27.80
2018-05-29T14:05:37.341Z,28.00
2018-05-29T14:08:04.818Z,27.95
2018-05-29T14:10:32.247Z,28.16
2018-05-29T14:13:00.740Z,28.14
2018-05-29T14:15:28.236Z,28.25
2018-05-29T14:17:55.281Z,28.29
2018-05-29T14:20:22.804Z,28.23
2018-05-29T14:22:50.258Z,28.22
2018-05-29T14:25:18.272Z,28.38
2018-05-29T14:27:45.795Z,28.79
2018-05-29T14:30:13.236Z,28.50
2018-05-29T14:32:40.749Z,28.45
2018-05-29T14:35:10.476Z,28.43
2018-05-29T14:37:37.971Z,28.50
2018-05-29T14:40:04.963Z,28.45
2018-05-29T14:42:31.953Z,28.23
2018-05-29T14:45:00.566Z,27.97
2018-05-29T14:47:27.576Z,27.71
2018-05-29T14:49:54.596Z,27.90
2018-05-29T14:52:21.613Z,27.99
2018-05-29T14:54:48.630Z,28.29
2018-05-29T14:57:15.639Z,27.91
2018-05-29T14:59:42.648Z,27.50
2018-05-29T15:02:09.655Z,27.53
2018-05-29T15:04:37.109Z,27.90
2018-05-29T15:07:04.519Z,27.86
2018-05-29T15:09:32.007Z,28.16
2018-05-29T15:11:59.486Z,28.41
2018-05-29T15:14:27.206Z,28.45
2018-05-29T15:16:54.681Z,28.11
2018-05-29T15:19:22.805Z,28.37
2018-05-29T15:21:49.774Z,28.44
2018-05-29T15:24:17.205Z,28.19
2018-05-29T15:26:45.543Z,28.38
2018-05-29T15:29:12.527Z,28.60
2018-05-29T15:31:39.479Z,28.69
2018-05-29T15:34:06.533Z,28.01
2018-05-29T15:36:33.524Z,27.97
2018-05-29T15:39:00.685Z,27.99
2018-05-29T15:41:27.744Z,27.70
2018-05-29T15:43:54.726Z,27.67
2018-05-29T15:46:21.752Z,27.43
2018-05-29T15:48:48.728Z,27.37
2018-05-29T15:51:15.728Z,27.47
2018-05-29T15:53:42.853Z,27.63
2018-05-29T15:56:10.441Z,27.71
2018-05-29T15:58:37.673Z,27.67
2018-05-29T16:01:05.155Z,27.51
2018-05-29T16:03:35.109Z,27.31
2018-05-29T16:06:02.180Z,27.29
2018-05-29T16:08:29.777Z,27.28
2018-05-29T16:10:57.374Z,27.09
2018-05-29T16:13:24.895Z,26.67
2018-05-29T16:15:53.233Z,26.32
2018-05-29T16:18:20.729Z,26.07
2018-05-29T16:20:48.428Z,25.79
2018-05-29T16:23:15.976Z,25.73
2018-05-29T16:25:43.524Z,25.84
2018-05-29T16:28:11.017Z,26.02
2018-05-29T16:30:39.804Z,26.24
2018-05-29T16:33:07.278Z,26.25
2018-05-29T16:35:34.785Z,26.12
2018-05-29T16:38:03.109Z,26.06
2018-05-29T16:40:30.731Z,26.10
2018-05-29T16:42:58.202Z,25.99
2018-05-29T16:45:25.620Z,25.90
2018-05-29T16:47:52.685Z,25.85
2018-05-29T16:50:20.127Z,25.67
2018-05-29T16:52:47.557Z,25.61
2018-05-29T16:55:14.657Z,25.55
2018-05-29T16:57:42.234Z,25.64
2018-05-29T17:00:09.712Z,25.73
2018-05-29T17:02:36.652Z,25.73
2018-05-29T17:05:04.186Z,25.66
2018-05-29T17:07:38.743Z,25.76
2018-05-29T17:10:06.309Z,25.94
2018-05-29T17:12:34.962Z,26.19
2018-05-29T17:15:02.566Z,26.41
2018-05-29T17:17:29.996Z,26.39
2018-05-29T17:19:57.485Z,26.08
2018-05-29T17:22:24.467Z,25.85
2018-05-29T17:24:51.935Z,25.73
2018-05-29T17:27:19.452Z,25.34
2018-05-29T17:29:47.330Z,25.17
2018-05-29T17:32:32.301Z,25.08
2018-05-29T17:35:01.849Z,24.97
2018-05-29T17:37:28.980Z,25.01
2018-05-29T17:39:55.998Z,24.93
2018-05-29T17:42:23.405Z,24.86
2018-05-29T17:44:51.884Z,24.82
2018-05-29T17:47:19.532Z,24.78
2018-05-29T17:49:46.501Z,24.82
2018-05-29T17:52:13.541Z,24.77
2018-05-29T17:54:40.774Z,24.63
2018-05-29T17:57:08.200Z,24.55
2018-05-29T17:59:35.867Z,24.48
2018-05-29T18:02:02.852Z,24.41
2018-05-29T18:04:29.861Z,24.24
2018-05-29T18:06:56.860Z,24.25
2018-05-29T18:09:26.800Z,24.23
2018-05-29T18:11:53.859Z,24.24
2018-05-29T18:14:20.852Z,24.28
2018-05-29T18:16:47.951Z,24.26
2018-05-29T18:19:15.344Z,24.21
2018-05-29T18:21:48.394Z,24.21
2018-05-29T18:24:15.908Z,24.21
2018-05-29T18:26:42.897Z,24.15
2018-05-29T18:29:09.893Z,24.09
2018-05-29T18:31:36.923Z,24.10
2018-05-29T18:34:04.371Z,24.10
2018-05-29T18:36:31.847Z,24.15
2018-05-29T18:38:59.298Z,24.19
2018-05-29T18:41:26.777Z,24.22
2018-05-29T18:43:54.330Z,24.20
2018-05-29T18:46:22.396Z,24.08
2018-05-29T18:48:49.841Z,23.88
2018-05-29T18:51:17.277Z,23.83
2018-05-29T18:53:44.747Z,23.83
2018-05-29T18:56:12.227Z,23.73
2018-05-29T18:58:41.679Z,23.72
2018-05-29T19:01:09.166Z,23.68
2018-05-29T19:03:36.684Z,23.66
2018-05-29T19:06:04.479Z,23.70
2018-05-29T19:08:31.519Z,23.74
2018-05-29T19:10:58.960Z,23.80
2018-05-29T19:13:26.455Z,23.78
2018-05-29T19:15:53.441Z,23.74
2018-05-29T19:18:20.435Z,23.73
2018-05-29T19:20:47.427Z,23.70
2018-05-29T19:23:14.450Z,23.65
2018-05-29T19:25:41.599Z,23.57
2018-05-29T19:28:09.108Z,23.51
2018-05-29T19:30:36.638Z,23.48
2018-05-29T19:33:04.088Z,23.49
2018-05-29T19:35:31.513Z,23.54
2018-05-29T19:37:58.950Z,23.54
2018-05-29T19:40:26.427Z,23.57
2018-05-29T19:42:53.866Z,23.70
2018-05-29T19:45:21.572Z,23.68
2018-05-29T19:47:49.006Z,23.55
2018-05-29T19:50:17.098Z,23.46
2018-05-29T19:52:44.620Z,23.42
2018-05-29T19:55:11.607Z,23.41
2018-05-29T19:57:38.644Z,23.38
2018-05-29T20:00:06.928Z,23.36
2018-05-29T20:02:33.985Z,23.37
2018-05-29T20:05:01.122Z,23.32
2018-05-29T20:07:28.111Z,23.25
2018-05-29T20:09:55.545Z,23.24
2018-05-29T20:12:22.962Z,23.15
2018-05-29T20:14:50.409Z,23.06
2018-05-29T20:17:18.891Z,22.80
2018-05-29T20:19:46.352Z,22.57
2018-05-29T20:22:13.768Z,22.49
2018-05-29T20:24:41.181Z,22.36
2018-05-29T20:27:08.658Z,22.40
2018-05-29T20:29:36.153Z,22.43
2018-05-29T20:32:03.629Z,22.37
2018-05-29T20:34:31.346Z,22.24
2018-05-29T20:36:59.755Z,21.88
2018-05-29T20:39:27.999Z,21.42
2018-05-29T20:41:55.455Z,21.05
2018-05-29T20:44:22.918Z,20.78
2018-05-29T20:46:50.361Z,20.48
2018-05-29T20:49:17.813Z,20.40
2018-05-29T20:51:45.231Z,20.42
2018-05-29T20:54:12.698Z,20.37
2018-05-29T20:56:40.145Z,20.37
2018-05-29T20:59:07.744Z,20.30
2018-05-29T21:01:35.149Z,20.23
2018-05-29T21:04:02.626Z,20.14
2018-05-29T21:06:30.083Z,19.83
2018-05-29T21:08:57.556Z,19.67
2018-05-29T21:11:24.983Z,19.65
2018-05-29T21:13:52.458Z,19.63
2018-05-29T21:16:22.496Z,19.52
2018-05-29T21:18:50.008Z,19.36
2018-05-29T21:21:17.466Z,19.31
2018-05-29T21:23:44.900Z,19.29
2018-05-29T21:26:12.480Z,19.41
2018-05-29T21:28:39.922Z,19.49
2018-05-29T21:31:08.124Z,19.56
2018-05-29T21:33:35.588Z,19.58
2018-05-29T21:36:03.034Z,19.67
2018-05-29T21:38:30.484Z,19.69
2018-05-29T21:40:57.927Z,19.71
2018-05-29T21:43:25.405Z,19.83
2018-05-29T21:45:52.833Z,19.92
2018-05-29T21:48:20.231Z,20.01
2018-05-29T21:50:47.703Z,20.03
2018-05-29T21:53:15.967Z,20.09
2018-05-29T21:55:43.370Z,20.18
2018-05-29T21:58:10.824Z,20.25
2018-05-29T22:00:38.283Z,20.29
2018-05-29T22:03:05.754Z,20.28
2018-05-29T22:05:35.806Z,20.23
2018-05-29T22:08:03.251Z,20.20
2018-05-29T22:10:30.674Z,20.20
2018-05-29T22:12:58.200Z,20.23
2018-05-29T22:15:26.677Z,20.19
2018-05-29T22:17:55.334Z,20.11
2018-05-29T22:20:22.773Z,20.02
2018-05-29T22:22:50.204Z,20.01
2018-05-29T22:25:17.611Z,20.00
2018-05-29T22:27:45.114Z,19.94
2018-05-29T22:30:12.589Z,19.89
2018-05-29T22:32:40.039Z,19.74
2018-05-29T22:35:07.473Z,19.55
2018-05-29T22:37:34.977Z,19.46
2018-05-29T22:40:02.443Z,19.52
2018-05-29T22:42:29.881Z,19.49
2018-05-29T22:44:57.296Z,19.42
2018-05-29T22:47:25.695Z,19.31
2018-05-29T22:49:53.159Z,19.22
2018-05-29T22:52:20.583Z,19.09
2018-05-29T22:54:48.022Z,18.93
2018-05-29T22:57:15.482Z,18.86
2018-05-29T22:59:42.944Z,18.84
2018-05-29T23:02:10.381Z,18.78
2018-05-29T23:04:37.801Z,18.79
2018-05-29T23:07:06.035Z,18.91
2018-05-29T23:09:33.488Z,18.98
2018-05-29T23:12:00.929Z,19.02
2018-05-29T23:14:28.413Z,19.11
2018-05-29T23:16:55.840Z,19.27
2018-05-29T23:19:23.248Z,19.29
2018-05-29T23:21:50.720Z,19.22
2018-05-29T23:24:18.582Z,19.17
2018-05-29T23:26:46.945Z,19.13
2018-05-29T23:29:14.439Z,19.06
2018-05-29T23:31:41.908Z,19.02
2018-05-29T23:34:09.376Z,19.09
2018-05-29T23:36:36.823Z,19.13
2018-05-29T23:39:04.253Z,19.13
2018-05-29T23:41:31.708Z,19.15
2018-05-29T23:43:59.373Z,19.07
2018-05-29T23:46:26.827Z,19.02
2018-05-29T23:48:55.456Z,19.01
2018-05-29T23:51:22.842Z,19.08
2018-05-29T23:53:50.281Z,19.01
2018-05-29T23:56:17.711Z,18.98
2018-05-29T23:58:45.139Z,19.03
